Time;durP1;ratioP1;P1;durP2;ratioP2;P2;SDS_P1;SDS_P2;PMS_P1;PMS_P2;Temp;Humidity;BMP_temperature;BMP_pressure;BME280_temperature;BME280_humidity;BME280_pressure;Samples;Min_cycle;Max_cycle;Signal;HPM_P1;HPM_P2
2023/05/23 00:02:06;;;;;;;20.55;9.77;;;;;;;12.92;100.00;102025.63;10293296;28;20027;-75
2023/05/23 00:07:07;;;;;;;14.05;9.38;;;;;;;12.91;100.00;102023.91;10276167;28;20055;-73
2023/05/23 00:12:07;;;;;;;18.42;10.05;;;;;;;12.93;100.00;102016.41;10276363;28;20505;-73
2023/05/23 00:17:09;;;;;;;16.15;8.80;;;;;;;12.94;100.00;102020.81;10312796;28;20042;-74
2023/05/23 00:22:11;;;;;;;14.15;7.65;;;;;;;12.95;100.00;102018.94;10296346;28;20425;-73
2023/05/23 00:27:11;;;;;;;24.58;8.50;;;;;;;13.02;100.00;102033.50;10292244;28;20035;-73
2023/05/23 00:32:11;;;;;;;15.40;7.90;;;;;;;12.98;100.00;102029.44;10292481;28;20409;-73
2023/05/23 00:37:12;;;;;;;19.50;11.13;;;;;;;12.97;100.00;102034.03;10275675;28;20093;-74
2023/05/23 00:42:12;;;;;;;33.70;11.10;;;;;;;12.97;100.00;102047.63;10291452;28;20043;-73
2023/05/23 00:47:12;;;;;;;18.60;10.45;;;;;;;12.95;100.00;102041.53;10274529;28;20398;-74
2023/05/23 00:52:13;;;;;;;19.35;9.82;;;;;;;12.94;100.00;102033.56;10280685;28;20058;-74
2023/05/23 00:57:14;;;;;;;13.48;8.18;;;;;;;12.91;100.00;102023.06;10282589;28;20038;-74
2023/05/23 01:02:14;;;;;;;18.45;10.30;;;;;;;12.95;100.00;102030.66;10299052;28;20078;-73
2023/05/23 01:07:15;;;;;;;29.50;10.48;;;;;;;13.05;100.00;102035.84;10298069;28;20137;-73
2023/05/23 01:12:15;;;;;;;23.08;9.10;;;;;;;13.16;100.00;102043.53;10299992;28;20035;-73
2023/05/23 01:17:23;;;;;;;25.00;9.23;;;;;;;13.17;100.00;102038.94;10299758;28;20113;-73
2023/05/23 01:22:54;;;;;;;29.48;8.80;;;;;;;13.19;100.00;102035.00;10266177;28;20421;-74
2023/05/23 01:27:55;;;;;;;19.60;8.30;;;;;;;13.20;100.00;102039.41;10269014;28;20038;-73
2023/05/23 01:32:56;;;;;;;13.52;7.20;;;;;;;13.18;100.00;102040.63;10282446;28;20035;-75
2023/05/23 01:37:56;;;;;;;21.95;6.95;;;;;;;13.14;100.00;102051.03;10298318;28;20474;-74
2023/05/23 01:42:57;;;;;;;19.27;6.88;;;;;;;13.20;100.00;102050.28;10281039;28;20030;-74
2023/05/23 01:47:57;;;;;;;18.10;6.70;;;;;;;13.19;100.00;102045.03;10265644;28;20045;-73
2023/05/23 01:52:57;;;;;;;17.98;7.63;;;;;;;13.17;100.00;102055.25;10270123;28;20027;-74
2023/05/23 01:57:58;;;;;;;22.23;8.43;;;;;;;13.20;100.00;102065.75;10299180;28;20043;-73
2023/05/23 02:02:58;;;;;;;20.92;7.60;;;;;;;13.17;100.00;102061.53;10279751;28;20114;-72
2023/05/23 02:07:59;;;;;;;21.92;6.90;;;;;;;13.15;100.00;102052.72;10280693;28;20047;-73
2023/05/23 02:12:59;;;;;;;31.52;7.70;;;;;;;13.04;100.00;102064.06;10281791;28;20042;-72
2023/05/23 02:18:02;;;;;;;37.15;10.40;;;;;;;13.02;100.00;102069.69;10281894;28;20043;-74
2023/05/23 02:23:02;;;;;;;17.27;8.68;;;;;;;13.02;100.00;102074.28;10297378;28;20042;-73
2023/05/23 02:28:02;;;;;;;10.45;5.35;;;;;;;13.03;100.00;102071.38;10296625;28;20038;-73
2023/05/23 02:33:06;;;;;;;16.13;5.85;;;;;;;13.04;100.00;102093.97;10295410;28;20039;-73
2023/05/23 02:38:07;;;;;;;13.70;5.63;;;;;;;13.07;100.00;102093.59;10262659;28;20115;-73
2023/05/23 02:43:07;;;;;;;36.30;7.35;;;;;;;13.06;100.00;102086.47;10278504;28;20485;-74
2023/05/23 02:48:07;;;;;;;18.25;7.97;;;;;;;13.08;100.00;102092.59;10277902;28;20039;-73
2023/05/23 02:53:08;;;;;;;12.30;6.68;;;;;;;13.09;100.00;102104.31;10296214;28;20073;-73
2023/05/23 02:58:08;;;;;;;21.20;6.75;;;;;;;13.03;100.00;102108.59;10295253;28;20342;-73
2023/05/23 03:03:10;;;;;;;8.80;5.40;;;;;;;13.00;100.00;102109.81;10277296;28;20046;-72
2023/05/23 03:08:10;;;;;;;14.50;6.50;;;;;;;12.95;100.00;102112.22;10277603;28;20122;-74
2023/05/23 03:13:11;;;;;;;21.98;7.00;;;;;;;12.87;100.00;102120.47;10261609;28;20190;-73
2023/05/23 03:18:11;;;;;;;13.15;6.18;;;;;;;12.83;100.00;102111.00;10260916;28;20039;-74
2023/05/23 03:23:12;;;;;;;30.63;6.45;;;;;;;12.80;100.00;102123.06;10295475;28;20058;-73
2023/05/23 03:28:12;;;;;;;11.57;4.75;;;;;;;12.76;100.00;102118.16;10282581;28;20049;-74
2023/05/23 03:33:13;;;;;;;9.30;5.30;;;;;;;12.69;100.00;102106.34;10261045;28;20043;-74
2023/05/23 03:38:13;;;;;;;13.32;5.03;;;;;;;12.67;100.00;102120.13;10275938;28;20038;-75
2023/05/23 03:43:14;;;;;;;14.35;4.38;;;;;;;12.51;100.00;102126.50;10294750;28;20041;-73
2023/05/23 03:48:14;;;;;;;13.57;5.10;;;;;;;12.56;100.00;102134.13;10277458;28;20123;-73
2023/05/23 03:53:15;;;;;;;13.15;6.35;;;;;;;12.62;100.00;102138.81;10294221;28;20050;-75
2023/05/23 03:58:15;;;;;;;13.20;5.25;;;;;;;12.65;100.00;102143.91;10293533;28;20050;-73
2023/05/23 04:03:16;;;;;;;6.95;4.90;;;;;;;12.49;100.00;102139.44;10292786;28;20431;-75
2023/05/23 04:08:20;;;;;;;10.20;5.32;;;;;;;12.26;100.00;102154.84;10293723;28;20081;-73
2023/05/23 04:13:22;;;;;;;12.57;6.10;;;;;;;12.14;100.00;102157.13;10281854;28;20039;-73
2023/05/23 04:18:22;;;;;;;17.42;5.82;;;;;;;12.26;100.00;102161.13;10293079;28;20393;-73
2023/05/23 04:23:23;;;;;;;9.18;5.35;;;;;;;12.33;100.00;102167.53;10293427;28;20054;-73
2023/05/23 04:28:25;;;;;;;14.82;7.03;;;;;;;12.40;100.00;102166.81;10284845;28;20475;-73
2023/05/23 04:33:27;;;;;;;16.40;5.97;;;;;;;12.45;100.00;102172.59;10301030;28;20031;-73
2023/05/23 04:38:27;;;;;;;16.08;6.60;;;;;;;12.38;100.00;102174.28;10299978;28;20394;-73
2023/05/23 04:43:28;;;;;;;25.98;8.13;;;;;;;12.45;100.00;102176.13;10304014;28;20045;-73
2023/05/23 04:48:30;;;;;;;14.98;8.35;;;;;;;12.41;100.00;102179.38;10286897;28;20027;-71
2023/05/23 04:53:30;;;;;;;12.63;6.47;;;;;;;12.45;100.00;102191.59;10290464;28;20026;-74
2023/05/23 04:58:31;;;;;;;14.93;6.40;;;;;;;12.42;100.00;102197.38;10305269;28;20038;-73
2023/05/23 05:03:31;;;;;;;13.00;6.15;;;;;;;12.43;100.00;102213.50;10271486;28;20054;-73
2023/05/23 05:08:31;;;;;;;10.45;7.15;;;;;;;12.50;100.00;102217.19;10299697;28;20066;-73
2023/05/23 05:13:32;;;;;;;16.92;7.72;;;;;;;12.50;100.00;102222.63;10299151;28;20054;-72
2023/05/23 05:18:32;;;;;;;17.65;6.07;;;;;;;12.49;100.00;102226.38;10299051;28;20039;-73
2023/05/23 05:23:33;;;;;;;19.63;6.15;;;;;;;12.47;100.00;102230.28;10281302;28;20066;-72
2023/05/23 05:28:33;;;;;;;12.88;6.03;;;;;;;12.45;100.00;102227.75;10280897;28;20039;-72
2023/05/23 05:33:34;;;;;;;24.10;8.20;;;;;;;12.49;100.00;102230.97;10297528;28;20042;-72
2023/05/23 05:38:35;;;;;;;14.95;6.68;;;;;;;12.52;100.00;102236.03;10296388;28;20493;-72
2023/05/23 05:43:35;;;;;;;12.50;5.30;;;;;;;12.43;100.00;102237.94;10298039;28;20046;-73
2023/05/23 05:48:36;;;;;;;6.57;4.53;;;;;;;12.43;100.00;102237.94;10281075;28;20046;-71
2023/05/23 05:53:36;;;;;;;9.95;5.47;;;;;;;12.50;100.00;102248.94;10280345;28;20050;-72
2023/05/23 05:58:37;;;;;;;5.97;4.13;;;;;;;12.51;100.00;102251.50;10297377;28;20038;-72
2023/05/23 06:03:37;;;;;;;7.78;4.65;;;;;;;12.63;100.00;102259.25;10281025;28;20046;-72
2023/05/23 06:08:38;;;;;;;16.55;4.35;;;;;;;12.46;100.00;102253.06;10297144;28;20059;-72
2023/05/23 06:13:38;;;;;;;4.13;2.80;;;;;;;12.47;100.00;102258.28;10296386;28;20093;-72
2023/05/23 06:18:38;;;;;;;3.85;3.10;;;;;;;12.34;100.00;102267.00;10263500;28;20054;-72
2023/05/23 06:23:39;;;;;;;14.55;3.08;;;;;;;12.31;100.00;102275.50;10278653;28;20393;-72
2023/05/23 06:28:39;;;;;;;5.45;2.38;;;;;;;12.41;100.00;102267.19;10279606;28;20046;-72
2023/05/23 06:33:40;;;;;;;8.52;3.10;;;;;;;12.69;100.00;102272.97;10278940;28;20508;-72
2023/05/23 06:38:41;;;;;;;5.97;2.45;;;;;;;12.85;100.00;102273.91;10297618;28;20042;-73
2023/05/23 06:43:41;;;;;;;4.10;3.10;;;;;;;12.79;100.00;102259.16;10278354;28;20497;-72
2023/05/23 06:48:42;;;;;;;11.68;4.22;;;;;;;13.14;100.00;102284.94;10277563;28;20041;-73
2023/05/23 06:53:42;;;;;;;13.32;2.83;;;;;;;14.16;100.00;102288.13;10279368;28;20035;-73
2023/05/23 06:58:42;;;;;;;23.23;4.22;;;;;;;14.81;98.10;102291.13;10294498;28;20497;-73
2023/05/23 07:03:44;;;;;;;25.73;5.32;;;;;;;16.32;98.22;102279.00;10277843;28;20054;-72
2023/05/23 07:08:45;;;;;;;9.95;3.40;;;;;;;15.51;88.14;102295.00;10277657;28;20378;-71
2023/05/23 07:13:46;;;;;;;15.98;4.55;;;;;;;15.37;89.78;102295.91;10309401;28;20049;-74
2023/05/23 07:18:46;;;;;;;9.18;3.63;;;;;;;15.35;82.37;102302.41;10278475;28;20469;-72
2023/05/23 07:23:46;;;;;;;7.90;4.05;;;;;;;14.94;84.88;102307.63;10277485;28;20054;-73
2023/05/23 07:28:47;;;;;;;12.00;4.25;;;;;;;15.38;85.95;102317.56;10294422;28;20039;-73
2023/05/23 07:33:47;;;;;;;11.25;4.03;;;;;;;15.22;83.81;102315.94;10276422;28;20034;-73
2023/05/23 07:38:48;;;;;;;11.70;3.80;;;;;;;16.04;85.20;102311.84;10294349;28;20050;-73
2023/05/23 07:43:48;;;;;;;11.20;3.92;;;;;;;16.16;79.63;102312.13;10277575;28;20034;-72
2023/05/23 07:48:49;;;;;;;17.60;5.30;;;;;;;15.27;78.98;102313.44;10294949;28;20034;-73
2023/05/23 07:53:49;;;;;;;10.05;3.80;;;;;;;15.70;82.65;102329.03;10275704;28;20340;-73
2023/05/23 07:58:50;;;;;;;14.07;5.13;;;;;;;16.46;75.45;102335.47;10292430;28;20038;-73
2023/05/23 08:03:51;;;;;;;15.75;3.72;;;;;;;16.42;74.54;102336.06;10293648;28;20063;-72
2023/05/23 08:08:51;;;;;;;5.78;3.38;;;;;;;16.89;66.84;102335.28;10259690;28;20129;-72
2023/05/23 08:13:51;;;;;;;6.82;3.38;;;;;;;17.65;60.72;102328.72;10294004;28;20093;-72
2023/05/23 08:18:52;;;;;;;20.38;4.43;;;;;;;17.33;62.24;102322.97;10275493;28;20031;-73
2023/05/23 08:23:52;;;;;;;15.75;3.90;;;;;;;16.27;67.00;102344.34;10275561;28;20037;-73
2023/05/23 08:28:53;;;;;;;16.23;4.13;;;;;;;16.33;70.14;102350.91;10259713;28;20039;-73
2023/05/23 08:33:53;;;;;;;5.13;2.63;;;;;;;17.04;66.83;102357.00;10275258;28;20035;-73
2023/05/23 08:38:53;;;;;;;10.18;3.13;;;;;;;18.87;62.94;102351.13;10274751;28;20038;-73
2023/05/23 08:43:54;;;;;;;14.75;4.68;;;;;;;18.42;65.21;102346.38;10292330;28;20046;-72
2023/05/23 08:48:55;;;;;;;10.15;4.07;;;;;;;18.20;59.19;102362.25;10260087;28;20477;-72
2023/05/23 08:53:55;;;;;;;13.75;4.18;;;;;;;18.48;59.36;102348.28;10293382;28;20081;-73
2023/05/23 08:58:56;;;;;;;14.27;4.00;;;;;;;18.17;57.50;102361.81;10275025;28;20540;-74
2023/05/23 09:04:03;;;;;;;11.43;2.92;;;;;;;18.25;60.78;102369.81;10274112;28;20157;-72
2023/05/23 09:09:03;;;;;;;9.35;3.22;;;;;;;19.21;58.21;102372.72;10276190;28;20035;-73
2023/05/23 09:14:06;;;;;;;11.18;4.55;;;;;;;18.88;56.73;102383.00;10299587;28;20061;-75
2023/05/23 09:19:11;;;;;;;11.52;4.00;;;;;;;19.71;55.11;102364.59;10283721;28;20027;-72
2023/05/23 09:24:11;;;;;;;16.27;5.03;;;;;;;19.44;53.38;102387.81;10298596;28;20038;-73
2023/05/23 09:29:12;;;;;;;7.20;4.32;;;;;;;19.54;57.82;102387.31;10298227;28;20031;-73
2023/05/23 09:34:12;;;;;;;13.82;3.88;;;;;;;20.58;57.42;102396.84;10299009;28;20058;-72
2023/05/23 09:39:12;;;;;;;13.25;3.00;;;;;;;19.32;51.67;102397.81;10297924;28;20031;-73
2023/05/23 09:44:13;;;;;;;7.03;3.67;;;;;;;20.07;53.84;102400.69;10281776;28;20031;-73
2023/05/23 09:49:14;;;;;;;13.88;4.50;;;;;;;18.96;52.74;102399.25;10269042;28;20058;-72
2023/05/23 09:54:18;;;;;;;12.63;3.97;;;;;;;18.12;57.66;102406.31;10285194;28;20031;-72
2023/05/23 09:59:22;;;;;;;8.02;2.97;;;;;;;18.10;55.93;102416.66;10283628;28;20035;-72
2023/05/23 10:04:23;;;;;;;6.45;3.30;;;;;;;18.77;56.21;102406.47;10264807;28;20050;-73
2023/05/23 10:09:24;;;;;;;6.15;3.97;;;;;;;18.28;60.15;102419.63;10263718;28;20054;-72
2023/05/23 10:14:24;;;;;;;7.55;4.18;;;;;;;17.80;58.93;102418.94;10296118;28;20118;-73
2023/05/23 10:19:46;;;;;;;11.45;3.65;;;;;;;16.89;59.84;102420.09;10279313;28;20031;-72
2023/05/23 10:24:47;;;;;;;7.22;3.85;;;;;;;17.09;63.72;102419.34;10295164;28;20134;-71
2023/05/23 10:29:47;;;;;;;11.10;3.28;;;;;;;17.02;61.55;102424.78;10279019;28;20110;-73
2023/05/23 10:35:06;;;;;;;6.78;2.97;;;;;;;16.59;62.48;102426.81;10262778;28;20518;-72
2023/05/23 10:40:24;;;;;;;10.50;2.92;;;;;;;16.60;63.47;102425.78;10263843;28;20386;-72
2023/05/23 10:45:24;;;;;;;5.35;2.28;;;;;;;17.35;63.90;102429.53;10278024;28;20482;-72
2023/05/23 10:50:35;;;;;;;9.68;2.58;;;;;;;17.46;60.61;102420.75;10277965;28;20078;-72
2023/05/23 10:55:36;;;;;;;11.63;3.30;;;;;;;19.50;57.17;102428.16;10295092;28;20038;-73
2023/05/23 11:00:36;;;;;;;6.07;3.00;;;;;;;19.26;57.63;102433.31;10295869;28;20504;-73
2023/05/23 11:05:42;;;;;;;5.30;2.40;;;;;;;20.63;52.42;102427.31;10294753;28;20142;-72
2023/05/23 11:10:59;;;;;;;6.90;3.15;;;;;;;21.02;48.26;102423.25;10262979;28;20038;-72
2023/05/23 11:16:00;;;;;;;5.35;2.35;;;;;;;22.67;50.19;102418.22;10294821;28;20031;-72
2023/05/23 11:21:00;;;;;;;11.75;3.78;;;;;;;22.89;43.49;102418.44;10262302;28;20462;-73
2023/05/23 11:26:00;;;;;;;9.48;3.17;;;;;;;22.08;45.13;102426.47;10245288;28;20045;-73
2023/05/23 11:31:01;;;;;;;7.55;3.25;;;;;;;21.06;51.39;102424.50;10276418;28;20046;-72
2023/05/23 11:36:02;;;;;;;8.73;3.83;;;;;;;22.38;49.33;102429.16;10276897;28;20045;-73
2023/05/23 11:41:02;;;;;;;7.20;3.35;;;;;;;21.08;45.71;102438.84;10261285;28;20034;-71
2023/05/23 11:46:09;;;;;;;9.48;4.43;;;;;;;20.07;48.88;102441.94;10293645;28;20038;-72
2023/05/23 11:51:09;;;;;;;16.17;4.38;;;;;;;19.79;49.18;102453.38;10260278;28;20482;-73
2023/05/23 11:56:10;;;;;;;5.25;2.90;;;;;;;20.26;49.73;102437.34;10276513;28;20038;-72
2023/05/23 12:01:11;;;;;;;4.93;3.22;;;;;;;20.91;49.90;102440.56;10259924;28;20489;-73
2023/05/23 12:06:18;;;;;;;17.20;4.10;;;;;;;20.21;51.66;102443.53;10276634;28;20138;-72
2023/05/23 12:11:18;;;;;;;5.70;3.08;;;;;;;19.82;51.29;102448.28;10276333;28;20030;-73
2023/05/23 12:16:18;;;;;;;10.32;3.60;;;;;;;20.40;53.08;102439.75;10277204;28;20119;-72
2023/05/23 12:21:19;;;;;;;12.48;4.32;;;;;;;20.28;53.07;102447.06;10260355;28;20039;-73
2023/05/23 12:26:21;;;;;;;23.00;4.00;;;;;;;20.51;51.10;102446.47;10277868;28;20043;-72
2023/05/23 12:31:22;;;;;;;3.03;2.72;;;;;;;20.37;51.52;102451.22;10277763;28;20154;-72
2023/05/23 12:36:26;;;;;;;8.82;2.53;;;;;;;20.24;52.85;102451.34;10277164;28;20115;-72
2023/05/23 12:41:26;;;;;;;12.63;2.80;;;;;;;20.23;52.54;102451.56;10260747;28;20031;-72
2023/05/23 12:46:27;;;;;;;9.95;3.40;;;;;;;20.33;51.20;102446.41;10280563;28;20039;-73
2023/05/23 12:51:27;;;;;;;11.50;3.00;;;;;;;21.35;50.33;102452.34;10300586;28;20061;-73
2023/05/23 12:56:28;;;;;;;7.10;3.22;;;;;;;20.76;45.63;102442.84;10302009;28;20061;-72
2023/05/23 13:01:28;;;;;;;5.22;2.60;;;;;;;21.11;47.83;102448.56;10284921;28;20077;-72
2023/05/23 13:06:30;;;;;;;2.80;2.50;;;;;;;20.29;46.73;102448.75;10283322;28;20386;-73
2023/05/23 13:11:30;;;;;;;8.98;3.13;;;;;;;20.05;47.89;102449.59;10300074;28;20125;-72
2023/05/23 13:16:31;;;;;;;9.63;2.70;;;;;;;20.48;49.63;102451.53;10282076;28;20042;-72
2023/05/23 13:21:32;;;;;;;6.32;2.90;;;;;;;20.06;49.39;102454.84;10282020;28;20117;-73
2023/05/23 13:26:32;;;;;;;7.05;2.88;;;;;;;19.81;48.96;102453.97;10250071;28;20066;-72
2023/05/23 13:31:33;;;;;;;7.63;2.80;;;;;;;20.24;48.85;102450.50;10299485;28;20038;-72
2023/05/23 13:36:34;;;;;;;16.65;3.38;;;;;;;20.42;50.04;102445.91;10305785;28;20105;-73
2023/05/23 13:41:35;;;;;;;12.38;3.15;;;;;;;19.93;49.42;102457.72;10288323;28;20085;-73
2023/05/23 13:46:35;;;;;;;3.83;2.53;;;;;;;20.37;48.69;102453.13;10304217;28;20093;-73
2023/05/23 13:51:36;;;;;;;9.05;4.18;;;;;;;20.29;49.99;102450.66;10302238;28;20046;-72
2023/05/23 13:56:38;;;;;;;7.18;2.30;;;;;;;20.41;47.41;102462.63;10281811;28;20144;-73
2023/05/23 14:01:39;;;;;;;7.15;3.83;;;;;;;20.64;49.45;102457.38;10297486;28;20035;-73
2023/05/23 14:06:40;;;;;;;5.32;3.15;;;;;;;20.01;44.40;102471.19;10297685;28;20137;-72
2023/05/23 14:11:40;;;;;;;8.02;3.45;;;;;;;19.88;47.74;102457.56;10280847;28;20042;-72
2023/05/23 14:16:40;;;;;;;4.20;3.35;;;;;;;19.37;45.17;102440.03;10280759;28;20038;-73
2023/05/23 14:21:41;;;;;;;3.40;2.67;;;;;;;18.96;47.39;102437.69;10263497;28;20114;-71
2023/05/23 14:26:41;;;;;;;8.95;2.40;;;;;;;18.93;48.53;102449.94;10297412;28;20043;-71
2023/05/23 14:31:42;;;;;;;8.75;2.15;;;;;;;19.20;49.04;102444.34;10263440;28;20133;-72
2023/05/23 14:36:42;;;;;;;4.50;2.35;;;;;;;18.90;48.99;102455.00;10278723;28;20493;-73
2023/05/23 14:41:43;;;;;;;5.82;2.83;;;;;;;18.81;49.98;102462.63;10277860;28;20035;-72
2023/05/23 14:46:47;;;;;;;14.40;4.10;;;;;;;18.60;48.38;102452.69;10278163;28;20057;-72
2023/05/23 14:51:48;;;;;;;6.03;3.20;;;;;;;18.54;50.15;102454.41;10295894;28;20480;-72
2023/05/23 14:56:48;;;;;;;7.72;2.85;;;;;;;18.79;48.63;102456.50;10279636;28;20129;-73
2023/05/23 15:01:49;;;;;;;3.05;1.88;;;;;;;18.50;50.72;102464.09;10279531;28;20065;-72
2023/05/23 15:06:49;;;;;;;13.77;3.92;;;;;;;18.20;49.03;102455.47;10277762;28;20062;-71
2023/05/23 15:11:50;;;;;;;3.92;2.70;;;;;;;18.23;48.19;102457.78;10260775;28;20062;-72
2023/05/23 15:16:50;;;;;;;5.50;2.22;;;;;;;18.06;51.00;102465.59;10278596;28;20505;-73
2023/05/23 15:21:51;;;;;;;16.00;3.72;;;;;;;17.83;50.45;102474.16;10295412;28;20030;-73
2023/05/23 15:26:52;;;;;;;4.15;2.88;;;;;;;17.83;51.37;102470.59;10294642;28;20065;-73
2023/05/23 15:31:52;;;;;;;6.78;2.58;;;;;;;17.47;49.63;102484.59;10277681;28;20125;-73
2023/05/23 15:36:55;;;;;;;5.80;2.05;;;;;;;17.21;51.90;102469.72;10276440;28;20462;-73
2023/05/23 15:41:55;;;;;;;9.68;2.67;;;;;;;17.09;51.49;102476.81;10260791;28;20466;-72
2023/05/23 15:46:56;;;;;;;13.57;3.28;;;;;;;16.42;51.80;102483.69;10276213;28;20067;-73
2023/05/23 15:51:56;;;;;;;4.38;2.97;;;;;;;16.49;52.70;102479.97;10277803;28;20057;-72
2023/05/23 15:56:57;;;;;;;6.68;2.90;;;;;;;16.35;52.86;102482.81;10293673;28;20035;-72
2023/05/23 16:01:57;;;;;;;4.97;2.65;;;;;;;16.13;53.60;102465.56;10278825;28;20059;-72
2023/05/23 16:06:58;;;;;;;8.07;2.65;;;;;;;15.92;53.66;102483.69;10259345;28;20059;-72
2023/05/23 16:11:58;;;;;;;6.55;2.55;;;;;;;15.71;53.21;102487.22;10293175;28;20066;-72
2023/05/23 16:17:01;;;;;;;5.97;3.20;;;;;;;15.46;52.94;102472.19;10275905;28;20367;-72
2023/05/23 16:22:02;;;;;;;5.45;2.60;;;;;;;14.95;52.75;102478.44;10280915;28;20042;-71
2023/05/23 16:27:03;;;;;;;15.10;3.15;;;;;;;14.55;53.13;102475.13;10284175;28;20506;-72
2023/05/23 16:32:04;;;;;;;18.98;3.22;;;;;;;14.24;54.75;102477.94;10284108;28;20063;-72
2023/05/23 16:37:05;;;;;;;6.88;2.53;;;;;;;14.01;56.48;102467.06;10283654;28;20042;-71
2023/05/23 16:42:07;;;;;;;14.57;2.78;;;;;;;13.85;55.73;102461.72;10300815;28;20454;-72
2023/05/23 16:47:07;;;;;;;7.53;2.85;;;;;;;13.68;56.25;102467.25;10299415;28;20043;-71
2023/05/23 16:52:08;;;;;;;12.55;2.53;;;;;;;13.54;57.37;102472.63;10282792;28;20038;-72
2023/05/23 16:57:09;;;;;;;3.97;2.50;;;;;;;13.36;58.40;102467.44;10283115;28;20030;-72
2023/05/23 17:02:11;;;;;;;7.40;2.90;;;;;;;13.32;59.16;102460.69;10281897;28;20039;-72
2023/05/23 17:07:11;;;;;;;9.77;2.60;;;;;;;13.22;59.79;102458.97;10282094;28;20386;-71
2023/05/23 17:12:12;;;;;;;8.48;2.30;;;;;;;13.08;60.68;102465.16;10281263;28;20039;-72
2023/05/23 17:17:12;;;;;;;15.27;2.95;;;;;;;12.98;62.02;102475.38;10283133;28;20041;-72
2023/05/23 17:22:13;;;;;;;7.68;2.42;;;;;;;12.82;61.28;102473.56;10282409;28;20031;-73
2023/05/23 17:27:13;;;;;;;9.40;3.13;;;;;;;12.76;61.25;102469.69;10282124;28;20045;-72
2023/05/23 17:32:15;;;;;;;9.40;3.10;;;;;;;12.84;60.16;102470.69;10283095;28;20130;-72
2023/05/23 17:37:15;;;;;;;4.47;1.98;;;;;;;12.75;62.23;102481.56;10281298;28;20489;-71
2023/05/23 17:42:15;;;;;;;22.65;3.35;;;;;;;12.68;66.37;102485.16;10300543;28;20035;-71
2023/05/23 17:47:17;;;;;;;16.00;4.10;;;;;;;12.50;66.80;102482.63;10297733;28;20051;-72
2023/05/23 17:52:17;;;;;;;6.22;3.55;;;;;;;12.38;66.87;102478.56;10297297;28;20155;-72
2023/05/23 17:57:18;;;;;;;11.10;2.33;;;;;;;12.29;64.69;102480.44;10297603;28;20034;-71
2023/05/23 18:02:18;;;;;;;7.05;2.63;;;;;;;12.27;64.66;102490.63;10264353;28;20115;-73
2023/05/23 18:07:20;;;;;;;13.68;3.67;;;;;;;12.16;68.36;102490.97;10297508;28;20501;-73
2023/05/23 18:12:21;;;;;;;17.10;3.10;;;;;;;11.99;73.20;102490.09;10280229;28;20056;-72
2023/05/23 18:17:23;;;;;;;13.85;5.18;;;;;;;11.98;72.20;102500.09;10297156;28;20041;-71
2023/05/23 18:22:32;;;;;;;9.30;2.35;;;;;;;11.80;76.08;102494.78;10298115;28;20034;-71
2023/05/23 18:27:32;;;;;;;10.18;3.78;;;;;;;11.78;74.37;102493.25;10297537;28;20062;-72
2023/05/23 18:32:33;;;;;;;12.13;2.97;;;;;;;11.73;71.10;102491.03;10295076;28;20445;-72
2023/05/23 18:37:33;;;;;;;9.93;3.97;;;;;;;11.64;70.24;102492.03;10278756;28;20049;-73
2023/05/23 18:42:34;;;;;;;11.02;2.85;;;;;;;11.52;72.53;102480.66;10294660;28;20189;-73
2023/05/23 18:47:35;;;;;;;5.60;3.55;;;;;;;11.38;73.79;102481.25;10263826;28;20425;-73
2023/05/23 18:52:36;;;;;;;6.00;3.30;;;;;;;11.27;75.59;102487.00;10278744;28;20130;-75
2023/05/23 18:57:36;;;;;;;14.10;3.83;;;;;;;11.16;75.71;102488.13;10278160;28;20043;-73
2023/05/23 19:02:42;;;;;;;15.07;4.10;;;;;;;11.16;75.33;102504.38;10261997;28;20378;-73
2023/05/23 19:07:42;;;;;;;12.68;3.40;;;;;;;11.09;74.45;102514.19;10298076;28;20097;-73
2023/05/23 19:12:43;;;;;;;10.93;3.33;;;;;;;10.99;77.76;102511.59;10295549;28;20054;-71
2023/05/23 19:17:44;;;;;;;11.40;3.67;;;;;;;10.93;77.23;102504.94;10277580;28;20050;-74
2023/05/23 19:22:47;;;;;;;10.40;3.38;;;;;;;10.89;77.86;102519.00;10261627;28;20039;-72
2023/05/23 19:27:48;;;;;;;9.27;4.15;;;;;;;10.77;80.81;102515.69;10277549;28;20122;-74
2023/05/23 19:32:50;;;;;;;8.68;3.33;;;;;;;10.73;79.96;102511.63;10293890;28;20114;-71
2023/05/23 19:37:50;;;;;;;10.00;3.70;;;;;;;10.64;79.43;102515.28;10293166;28;20041;-71
2023/05/23 19:42:52;;;;;;;14.13;4.72;;;;;;;10.55;80.32;102521.63;10293023;28;20031;-73
2023/05/23 19:47:53;;;;;;;9.32;3.50;;;;;;;10.48;78.69;102534.94;10276840;28;20126;-74
2023/05/23 19:52:56;;;;;;;14.40;3.40;;;;;;;10.36;77.81;102534.34;10260563;28;20130;-73
2023/05/23 19:57:57;;;;;;;5.28;3.55;;;;;;;10.28;77.99;102536.16;10293871;28;20497;-75
2023/05/23 20:03:02;;;;;;;22.08;4.97;;;;;;;10.24;78.51;102547.25;10277407;28;20131;-74
2023/05/23 20:08:05;;;;;;;10.18;4.13;;;;;;;10.16;79.13;102558.00;10296807;28;20050;-74
2023/05/23 20:13:06;;;;;;;10.88;4.47;;;;;;;10.12;80.36;102561.16;10276394;28;20065;-76
2023/05/23 20:18:06;;;;;;;9.55;4.53;;;;;;;10.06;79.56;102554.50;10260689;28;20035;-72
2023/05/23 20:23:12;;;;;;;16.23;3.85;;;;;;;9.98;78.29;102552.56;10276231;28;20477;-73
2023/05/23 20:28:13;;;;;;;22.55;3.78;;;;;;;9.85;77.19;102543.97;10293125;28;20039;-71
2023/05/23 20:33:13;;;;;;;22.42;4.75;;;;;;;9.80;78.28;102543.59;10259458;28;20105;-73
2023/05/23 20:38:17;;;;;;;9.98;4.30;;;;;;;9.74;78.76;102547.75;10276533;28;20113;-75
2023/05/23 20:43:18;;;;;;;6.10;2.90;;;;;;;9.74;80.83;102541.47;10296022;28;20466;-72
2023/05/23 20:48:19;;;;;;;18.58;4.55;;;;;;;9.68;78.68;102539.38;10293176;28;20034;-71
2023/05/23 20:53:19;;;;;;;11.52;4.30;;;;;;;9.60;78.98;102536.56;10275207;28;20035;-72
2023/05/23 20:58:20;;;;;;;8.50;4.00;;;;;;;9.60;78.80;102542.81;10293348;28;20046;-77
2023/05/23 21:03:21;;;;;;;11.05;3.40;;;;;;;9.51;79.13;102528.38;10274200;28;20416;-75
2023/05/23 21:08:23;;;;;;;10.70;3.80;;;;;;;9.44;79.15;102535.34;10279285;28;20055;-74
2023/05/23 21:13:23;;;;;;;12.73;3.90;;;;;;;9.37;79.70;102528.84;10299523;28;20035;-72
2023/05/23 21:18:24;;;;;;;15.00;4.28;;;;;;;9.33;79.59;102540.97;10300309;28;20042;-75
2023/05/23 21:23:25;;;;;;;14.82;4.03;;;;;;;9.25;79.15;102535.44;10300262;28;20035;-72
2023/05/23 21:28:25;;;;;;;12.02;4.15;;;;;;;9.16;79.68;102529.09;10281199;28;20064;-73
2023/05/23 21:33:26;;;;;;;16.55;3.25;;;;;;;9.13;80.26;102532.09;10299067;28;20038;-72
2023/05/23 21:38:28;;;;;;;15.60;5.80;;;;;;;9.07;80.71;102530.00;10282527;28;20031;-72
2023/05/23 21:43:28;;;;;;;19.08;4.18;;;;;;;9.03;79.92;102545.66;10282399;28;20066;-72
2023/05/23 21:48:29;;;;;;;17.73;3.90;;;;;;;8.97;80.36;102540.00;10282755;28;20066;-72
2023/05/23 21:53:30;;;;;;;11.02;4.13;;;;;;;8.89;80.63;102543.41;10298211;28;20065;-74
2023/05/23 21:58:31;;;;;;;5.13;3.75;;;;;;;8.79;80.34;102547.97;10297743;28;20054;-73
2023/05/23 22:03:31;;;;;;;17.17;4.85;;;;;;;8.72;80.73;102547.72;10279860;28;20393;-74
2023/05/23 22:08:32;;;;;;;10.93;4.45;;;;;;;8.68;81.07;102551.72;10279935;28;20055;-72
2023/05/23 22:13:32;;;;;;;20.48;5.50;;;;;;;8.63;81.23;102536.94;10283942;28;20385;-73
2023/05/23 22:18:35;;;;;;;17.55;6.13;;;;;;;8.58;81.03;102527.41;10280759;28;20082;-71
2023/05/23 22:23:36;;;;;;;17.88;3.92;;;;;;;8.55;81.44;102529.53;10282044;28;20041;-72
2023/05/23 22:28:37;;;;;;;10.65;4.13;;;;;;;8.53;81.47;102524.28;10304265;28;20042;-72
2023/05/23 22:33:37;;;;;;;7.07;3.55;;;;;;;8.49;82.38;102543.63;10284547;28;20034;-72
2023/05/23 22:38:38;;;;;;;13.20;4.93;;;;;;;8.42;81.82;102539.78;10301794;28;20066;-71
2023/05/23 22:43:38;;;;;;;17.67;4.95;;;;;;;8.34;82.11;102537.78;10286524;28;20023;-72
2023/05/23 22:48:38;;;;;;;12.15;3.67;;;;;;;8.25;82.10;102530.53;10298046;28;20125;-72
2023/05/23 22:53:39;;;;;;;11.57;4.10;;;;;;;8.20;82.90;102519.28;10296625;28;20535;-73